createdAt,value
2023-05-19T00:01:17.799Z,12.17
2023-05-19T00:03:56.043Z,12.14
2023-05-19T00:06:27.687Z,12.16
2023-05-19T00:09:01.497Z,12.18
2023-05-19T00:11:31.269Z,12.09
2023-05-19T00:14:02.818Z,12.08
2023-05-19T00:16:33.397Z,12.16
2023-05-19T00:19:03.994Z,12.02
2023-05-19T00:21:34.435Z,12.08
2023-05-19T00:24:06.790Z,12.10
2023-05-19T00:26:36.570Z,12.12
2023-05-19T00:29:07.978Z,12.07
2023-05-19T00:31:37.513Z,12.04
2023-05-19T00:34:07.080Z,12.00
2023-05-19T00:36:36.879Z,11.99
2023-05-19T00:39:08.952Z,12.01
2023-05-19T00:41:38.712Z,12.00
2023-05-19T00:44:09.893Z,11.95
2023-05-19T00:46:39.457Z,12.01
2023-05-19T00:49:09.011Z,11.96
2023-05-19T00:51:38.782Z,11.95
2023-05-19T00:54:11.253Z,11.95
2023-05-19T00:56:40.863Z,11.97
2023-05-19T00:59:10.868Z,11.88
2023-05-19T01:01:40.404Z,11.85
2023-05-19T01:04:11.520Z,11.89
2023-05-19T01:06:41.326Z,11.84
2023-05-19T01:09:13.719Z,11.85
2023-05-19T01:11:43.195Z,11.77
2023-05-19T01:14:12.799Z,11.83
2023-05-19T01:16:47.626Z,11.83
2023-05-19T01:19:33.961Z,11.81
2023-05-19T01:22:23.129Z,11.80
2023-05-19T01:25:27.406Z,11.62
2023-05-19T01:28:23.446Z,11.71
2023-05-19T01:30:58.529Z,11.71
2023-05-19T01:33:31.404Z,11.68
2023-05-19T01:36:03.181Z,11.72
2023-05-19T01:38:33.353Z,11.64
2023-05-19T01:41:03.943Z,11.61
2023-05-19T01:43:34.224Z,11.58
2023-05-19T01:46:06.447Z,11.60
2023-05-19T01:48:36.772Z,11.62
2023-05-19T01:51:06.459Z,11.65
2023-05-19T01:53:36.193Z,11.70
2023-05-19T01:56:06.185Z,11.71
2023-05-19T01:58:43.778Z,11.66
2023-05-19T02:01:24.781Z,11.68
2023-05-19T02:04:09.767Z,11.67
2023-05-19T02:06:44.625Z,11.65
2023-05-19T02:09:19.073Z,11.43
2023-05-19T02:11:55.068Z,11.53
2023-05-19T02:14:32.528Z,11.51
2023-05-19T02:17:07.186Z,11.31
2023-05-19T02:19:41.228Z,11.29
2023-05-19T02:22:11.002Z,11.31
2023-05-19T02:24:41.522Z,11.22
2023-05-19T02:27:11.008Z,11.34
2023-05-19T02:29:40.494Z,11.31
2023-05-19T02:32:13.640Z,11.33
2023-05-19T02:34:45.693Z,11.30
2023-05-19T02:37:15.788Z,11.26
2023-05-19T02:39:46.386Z,11.23
2023-05-19T02:42:17.892Z,11.26
2023-05-19T02:44:47.424Z,11.26
2023-05-19T02:47:19.487Z,11.10
2023-05-19T02:49:49.080Z,11.12
2023-05-19T02:52:18.554Z,11.19
2023-05-19T02:54:48.126Z,11.24
2023-05-19T02:57:17.580Z,11.30
2023-05-19T02:59:47.205Z,11.26
2023-05-19T03:02:19.244Z,11.25
2023-05-19T03:04:48.740Z,11.15
2023-05-19T03:07:18.324Z,11.04
2023-05-19T03:09:47.784Z,10.98
2023-05-19T03:12:17.242Z,11.09
2023-05-19T03:14:47.702Z,11.03
2023-05-19T03:17:19.802Z,10.99
2023-05-19T03:19:49.402Z,11.03
2023-05-19T03:22:21.053Z,11.07
2023-05-19T03:24:51.820Z,10.97
2023-05-19T03:27:21.392Z,10.93
2023-05-19T03:29:50.956Z,11.04
2023-05-19T03:32:23.221Z,10.99
2023-05-19T03:34:53.017Z,10.89
2023-05-19T03:37:22.667Z,10.80
2023-05-19T03:39:52.131Z,10.77
2023-05-19T03:42:21.762Z,10.91
2023-05-19T03:44:51.784Z,10.78
2023-05-19T03:47:24.008Z,10.76
2023-05-19T03:50:05.108Z,10.77
2023-05-19T03:52:55.348Z,10.86
2023-05-19T03:55:30.478Z,10.74
2023-05-19T03:57:59.982Z,10.87
2023-05-19T04:00:32.451Z,10.78
2023-05-19T04:03:04.881Z,10.78
2023-05-19T04:05:34.537Z,10.77
2023-05-19T04:08:04.087Z,10.72
2023-05-19T04:10:33.804Z,10.78
2023-05-19T04:13:03.534Z,10.74
2023-05-19T04:15:33.164Z,10.66
2023-05-19T04:18:05.276Z,10.56
2023-05-19T04:20:35.649Z,10.59
2023-05-19T04:23:06.080Z,10.66
2023-05-19T04:25:36.468Z,10.80
2023-05-19T04:28:06.274Z,10.79
2023-05-19T04:30:37.170Z,10.70
2023-05-19T04:33:09.337Z,10.73
2023-05-19T04:35:39.834Z,10.67
2023-05-19T04:38:12.170Z,10.73
2023-05-19T04:40:43.342Z,10.76
2023-05-19T04:43:13.643Z,10.72
2023-05-19T04:45:44.286Z,10.65
2023-05-19T04:48:17.398Z,10.64
2023-05-19T04:50:48.994Z,10.56
2023-05-19T04:53:18.835Z,10.65
2023-05-19T04:55:48.381Z,10.67
2023-05-19T04:58:20.092Z,10.72
2023-05-19T05:00:50.861Z,10.75
2023-05-19T05:03:23.253Z,10.70
2023-05-19T05:05:53.963Z,10.67
2023-05-19T05:08:24.605Z,10.73
2023-05-19T05:10:56.521Z,10.69
2023-05-19T05:13:27.465Z,10.80
2023-05-19T05:15:58.685Z,10.57
2023-05-19T05:18:31.930Z,10.69
2023-05-19T05:21:03.587Z,10.76
2023-05-19T05:23:33.750Z,10.79
2023-05-19T05:26:10.538Z,10.65
2023-05-19T05:28:40.245Z,10.79
2023-05-19T05:31:09.776Z,10.76
2023-05-19T05:33:42.259Z,10.81
2023-05-19T05:36:12.708Z,10.86
2023-05-19T05:38:42.360Z,10.81
2023-05-19T05:41:12.108Z,10.86
2023-05-19T05:43:41.650Z,10.94
2023-05-19T05:46:11.551Z,10.91
2023-05-19T05:48:44.459Z,11.01
2023-05-19T05:51:15.372Z,11.06
2023-05-19T05:53:47.639Z,11.13
2023-05-19T05:56:19.056Z,11.14
2023-05-19T05:58:53.929Z,11.18
2023-05-19T06:01:24.178Z,11.22
2023-05-19T06:03:56.814Z,11.20
2023-05-19T06:06:27.185Z,11.27
2023-05-19T06:08:57.767Z,11.26
2023-05-19T06:11:28.875Z,11.25
2023-05-19T06:14:00.729Z,11.31
2023-05-19T06:16:48.245Z,11.30
2023-05-19T06:19:21.836Z,11.32
2023-05-19T06:21:51.554Z,11.35
2023-05-19T06:24:21.070Z,11.31
2023-05-19T06:26:51.004Z,11.35
2023-05-19T06:29:21.427Z,11.39
2023-05-19T06:31:52.329Z,11.41
2023-05-19T06:34:24.629Z,11.46
2023-05-19T06:36:54.206Z,11.47
2023-05-19T06:39:25.013Z,11.49
2023-05-19T06:41:54.573Z,11.54
2023-05-19T06:44:46.967Z,11.59
2023-05-19T06:47:18.524Z,11.62
2023-05-19T06:49:55.482Z,11.66
2023-05-19T06:52:28.541Z,11.70
2023-05-19T06:54:58.949Z,11.74
2023-05-19T06:57:28.472Z,11.74
2023-05-19T06:59:59.266Z,11.77
2023-05-19T07:02:29.414Z,11.83
2023-05-19T07:05:04.571Z,11.81
2023-05-19T07:07:34.066Z,11.85
2023-05-19T07:10:04.283Z,11.89
2023-05-19T07:12:35.126Z,11.95
2023-05-19T07:15:04.692Z,11.94
2023-05-19T07:17:34.589Z,11.97
2023-05-19T07:20:10.148Z,12.01
2023-05-19T07:22:40.035Z,12.04
2023-05-19T07:25:11.116Z,12.04
2023-05-19T07:27:41.985Z,12.07
2023-05-19T07:30:12.469Z,12.10
2023-05-19T07:32:42.054Z,12.16
2023-05-19T07:35:14.235Z,12.21
2023-05-19T07:37:43.751Z,12.29
2023-05-19T07:40:13.742Z,12.31
2023-05-19T07:42:44.689Z,12.39
2023-05-19T07:45:14.494Z,12.39
2023-05-19T07:47:44.058Z,12.39
2023-05-19T07:50:16.405Z,12.43
2023-05-19T07:52:45.963Z,12.56
2023-05-19T07:55:15.471Z,12.54
2023-05-19T07:57:44.983Z,12.60
2023-05-19T08:00:15.740Z,12.59
2023-05-19T08:02:45.359Z,12.83
2023-05-19T08:05:17.466Z,12.76
2023-05-19T08:07:47.189Z,12.71
2023-05-19T08:10:16.941Z,12.74
2023-05-19T08:12:46.824Z,12.82
2023-05-19T08:15:16.693Z,12.95
2023-05-19T08:17:46.207Z,12.87
2023-05-19T08:20:18.812Z,12.86
2023-05-19T08:22:48.268Z,12.93
2023-05-19T08:25:19.894Z,12.92
2023-05-19T08:27:49.449Z,12.99
2023-05-19T08:30:18.916Z,13.04
2023-05-19T08:32:48.938Z,13.00
2023-05-19T08:35:21.252Z,13.07
2023-05-19T08:37:50.709Z,13.11
2023-05-19T08:40:21.004Z,13.09
2023-05-19T08:42:50.774Z,13.19
2023-05-19T08:45:20.649Z,13.16
2023-05-19T08:47:50.225Z,13.25
2023-05-19T08:50:27.001Z,13.31
2023-05-19T08:53:04.275Z,13.44
2023-05-19T08:55:38.535Z,13.50
2023-05-19T08:58:08.207Z,13.56
2023-05-19T09:00:38.066Z,13.54
2023-05-19T09:03:18.350Z,13.58
2023-05-19T09:05:55.124Z,13.67
2023-05-19T09:08:24.873Z,13.65
2023-05-19T09:10:54.339Z,13.67
2023-05-19T09:13:23.955Z,13.78
2023-05-19T09:15:55.395Z,13.90
2023-05-19T09:18:26.731Z,13.88
2023-05-19T09:21:02.800Z,13.95
2023-05-19T09:23:34.520Z,13.94
2023-05-19T09:26:07.481Z,13.98
2023-05-19T09:28:38.532Z,14.08
2023-05-19T09:31:09.538Z,14.09
2023-05-19T09:33:41.560Z,14.16
2023-05-19T09:36:14.964Z,14.20
2023-05-19T09:38:44.486Z,14.30
2023-05-19T09:41:17.476Z,14.42
2023-05-19T09:43:57.287Z,14.38
2023-05-19T09:46:30.437Z,14.37
2023-05-19T09:49:00.485Z,14.35
2023-05-19T09:51:32.725Z,14.38
2023-05-19T09:54:02.330Z,14.40
2023-05-19T09:56:36.994Z,14.53
2023-05-19T09:59:09.979Z,14.58
2023-05-19T10:01:41.789Z,14.75
2023-05-19T10:04:11.835Z,14.74
2023-05-19T10:06:44.621Z,14.68
2023-05-19T10:09:14.428Z,14.74
2023-05-19T10:11:44.624Z,15.00
2023-05-19T10:14:14.349Z,15.02
2023-05-19T10:16:44.595Z,14.93
2023-05-19T10:19:15.684Z,14.98
2023-05-19T10:21:47.792Z,15.05
2023-05-19T10:24:17.340Z,15.00
2023-05-19T10:26:49.437Z,15.26
2023-05-19T10:29:22.795Z,15.20
2023-05-19T10:31:55.239Z,15.15
2023-05-19T10:34:40.731Z,15.13
2023-05-19T10:37:20.094Z,15.15
2023-05-19T10:39:53.854Z,15.17
2023-05-19T10:42:35.450Z,15.20
2023-05-19T10:45:13.412Z,15.25
2023-05-19T10:47:43.762Z,15.30
2023-05-19T10:50:13.968Z,15.38
2023-05-19T10:52:46.063Z,15.49
2023-05-19T10:55:17.975Z,15.62
2023-05-19T10:57:57.145Z,15.52
2023-05-19T11:00:34.036Z,15.65
2023-05-19T11:03:16.719Z,15.58
2023-05-19T11:05:50.148Z,15.58
2023-05-19T11:08:35.090Z,15.75
2023-05-19T11:11:16.531Z,15.76
2023-05-19T11:13:50.926Z,15.81
2023-05-19T11:16:31.027Z,15.84
2023-05-19T11:19:02.864Z,16.08
2023-05-19T11:21:47.020Z,16.10
2023-05-19T11:24:46.560Z,16.11
2023-05-19T11:27:31.980Z,15.94
2023-05-19T11:30:05.554Z,16.12
2023-05-19T11:32:39.871Z,16.26
2023-05-19T11:35:11.704Z,16.16
2023-05-19T11:37:42.819Z,16.21
2023-05-19T11:40:19.009Z,16.12
2023-05-19T11:42:48.605Z,16.12
2023-05-19T11:45:19.418Z,16.11
2023-05-19T11:48:01.298Z,16.22
2023-05-19T11:50:32.062Z,16.38
2023-05-19T11:53:04.272Z,16.35
2023-05-19T11:55:38.245Z,16.63
2023-05-19T11:58:08.248Z,16.49
2023-05-19T12:00:40.405Z,16.46
2023-05-19T12:03:12.262Z,16.45
2023-05-19T12:05:46.796Z,16.56
2023-05-19T12:08:18.236Z,16.61
2023-05-19T12:10:51.638Z,16.48
2023-05-19T12:13:23.514Z,16.52
2023-05-19T12:15:53.869Z,16.63
2023-05-19T12:18:24.038Z,16.64
2023-05-19T12:20:53.850Z,16.69
2023-05-19T12:23:24.928Z,16.77
2023-05-19T12:25:57.530Z,16.80
2023-05-19T12:28:28.081Z,16.79
2023-05-19T12:30:59.129Z,16.72
2023-05-19T12:33:30.288Z,16.92
2023-05-19T12:36:00.056Z,16.85
2023-05-19T12:38:31.059Z,16.83
2023-05-19T12:41:06.476Z,16.76
2023-05-19T12:43:37.066Z,16.69
2023-05-19T12:46:12.871Z,16.68
2023-05-19T12:48:46.238Z,16.70
2023-05-19T12:51:20.092Z,16.71
2023-05-19T12:53:50.275Z,16.76
2023-05-19T12:56:24.553Z,17.08
2023-05-19T12:58:57.369Z,16.89
2023-05-19T13:01:28.466Z,16.82
2023-05-19T13:03:58.351Z,16.82
2023-05-19T13:06:28.798Z,16.88
2023-05-19T13:08:58.642Z,16.91
2023-05-19T13:11:30.713Z,16.92
2023-05-19T13:14:00.213Z,16.94
2023-05-19T13:16:30.229Z,16.94
2023-05-19T13:18:59.860Z,17.11
2023-05-19T13:21:29.864Z,17.16
2023-05-19T13:23:59.321Z,17.21
2023-05-19T13:26:31.405Z,17.27
2023-05-19T13:29:00.927Z,17.46
2023-05-19T13:31:34.009Z,17.85
2023-05-19T13:34:03.574Z,18.18
2023-05-19T13:36:33.434Z,18.27
2023-05-19T13:39:03.609Z,18.31
2023-05-19T13:41:35.836Z,18.57
2023-05-19T13:44:06.687Z,18.74
2023-05-19T13:46:44.793Z,18.82
2023-05-19T13:49:16.094Z,18.67
2023-05-19T13:51:46.299Z,18.64
2023-05-19T13:54:15.867Z,18.55
2023-05-19T13:56:48.842Z,18.81
2023-05-19T13:59:18.626Z,18.91
2023-05-19T14:01:48.324Z,18.96
2023-05-19T14:04:20.336Z,18.90
2023-05-19T14:06:49.937Z,18.92
2023-05-19T14:09:19.534Z,19.01
2023-05-19T14:11:52.113Z,19.06
2023-05-19T14:14:21.483Z,19.11
2023-05-19T14:16:51.067Z,19.10
2023-05-19T14:19:20.821Z,19.17
2023-05-19T14:21:50.524Z,19.21
2023-05-19T14:24:20.313Z,19.09
2023-05-19T14:26:53.445Z,19.08
2023-05-19T14:29:22.934Z,19.01
2023-05-19T14:31:52.470Z,19.08
2023-05-19T14:34:22.070Z,19.21
2023-05-19T14:36:51.658Z,19.16
2023-05-19T14:39:21.219Z,19.07
2023-05-19T14:41:53.312Z,19.05
2023-05-19T14:44:22.814Z,19.03
2023-05-19T14:46:52.365Z,19.09
2023-05-19T14:49:21.921Z,19.00
2023-05-19T14:51:51.410Z,19.04
2023-05-19T14:54:20.906Z,19.00
2023-05-19T14:56:52.993Z,18.90
2023-05-19T14:59:22.537Z,19.10
2023-05-19T15:01:52.191Z,19.14
2023-05-19T15:04:21.837Z,19.18
2023-05-19T15:07:05.740Z,19.23
2023-05-19T15:09:38.989Z,19.30
2023-05-19T15:12:11.255Z,19.27
2023-05-19T15:14:40.802Z,19.22
2023-05-19T15:17:10.410Z,19.20
2023-05-19T15:19:41.138Z,19.30
2023-05-19T15:22:10.883Z,19.29
2023-05-19T15:24:41.340Z,19.39
2023-05-19T15:27:13.653Z,19.40
2023-05-19T15:29:43.200Z,19.25
2023-05-19T15:32:12.662Z,19.19
2023-05-19T15:34:42.200Z,19.09
2023-05-19T15:37:11.672Z,19.05
2023-05-19T15:39:41.180Z,19.00
2023-05-19T15:42:13.345Z,18.99
2023-05-19T15:44:42.823Z,18.99
2023-05-19T15:47:12.292Z,19.05
2023-05-19T15:49:41.812Z,18.97
2023-05-19T15:52:11.294Z,18.99
2023-05-19T15:54:41.010Z,18.88
2023-05-19T15:57:13.658Z,18.68
2023-05-19T15:59:43.187Z,18.59
2023-05-19T16:02:12.922Z,18.50
2023-05-19T16:04:42.484Z,18.43
2023-05-19T16:07:11.954Z,18.43
2023-05-19T16:09:41.440Z,18.42
2023-05-19T16:12:13.501Z,18.45
2023-05-19T16:14:42.965Z,18.47
2023-05-19T16:17:15.250Z,18.42
2023-05-19T16:19:44.735Z,18.37
2023-05-19T16:22:14.377Z,18.37
2023-05-19T16:24:43.873Z,18.40
2023-05-19T16:27:15.894Z,18.32
2023-05-19T16:29:45.379Z,18.32
2023-05-19T16:32:14.930Z,18.23
2023-05-19T16:34:44.394Z,18.23
2023-05-19T16:37:13.954Z,18.26
2023-05-19T16:39:43.922Z,18.27
2023-05-19T16:42:16.033Z,18.21
2023-05-19T16:44:45.501Z,18.17
2023-05-19T16:47:15.729Z,18.19
2023-05-19T16:49:45.458Z,18.18
2023-05-19T16:52:14.972Z,18.19
2023-05-19T16:54:44.448Z,18.17
2023-05-19T16:57:17.039Z,18.16
2023-05-19T16:59:46.364Z,18.17
2023-05-19T17:02:15.885Z,18.10
2023-05-19T17:04:45.374Z,18.07
2023-05-19T17:07:15.997Z,18.03
2023-05-19T17:09:46.059Z,18.06
2023-05-19T17:12:18.157Z,18.00
2023-05-19T17:14:47.660Z,18.05
2023-05-19T17:17:17.207Z,18.05
2023-05-19T17:19:46.966Z,18.06
2023-05-19T17:22:16.431Z,18.00
2023-05-19T17:24:45.966Z,17.98
2023-05-19T17:27:18.041Z,17.94
2023-05-19T17:29:47.819Z,17.93
2023-05-19T17:32:17.392Z,17.92
2023-05-19T17:34:46.927Z,17.92
2023-05-19T17:37:19.214Z,17.96
2023-05-19T17:39:48.703Z,17.91
2023-05-19T17:42:20.792Z,17.96
2023-05-19T17:44:50.318Z,17.91
2023-05-19T17:47:19.800Z,17.90
2023-05-19T17:49:50.273Z,17.86
2023-05-19T17:52:19.936Z,17.85
2023-05-19T17:54:50.641Z,17.83
2023-05-19T17:57:27.231Z,17.82
2023-05-19T17:59:57.407Z,17.82
2023-05-19T18:02:27.463Z,17.78
2023-05-19T18:04:57.586Z,17.77
2023-05-19T18:07:28.311Z,17.75
2023-05-19T18:09:58.836Z,17.77
2023-05-19T18:12:30.868Z,17.77
2023-05-19T18:15:00.558Z,17.75
2023-05-19T18:17:30.114Z,17.73
2023-05-19T18:19:59.621Z,17.71
2023-05-19T18:22:29.126Z,17.72
2023-05-19T18:24:58.995Z,17.70
2023-05-19T18:27:31.556Z,17.70
2023-05-19T18:30:00.873Z,17.70
2023-05-19T18:32:30.369Z,17.66
2023-05-19T18:35:00.038Z,17.64
2023-05-19T18:37:29.875Z,17.65
2023-05-19T18:39:59.453Z,17.62
2023-05-19T18:42:31.457Z,17.60
2023-05-19T18:45:00.920Z,17.61
2023-05-19T18:47:30.376Z,17.59
2023-05-19T18:50:00.266Z,17.58
2023-05-19T18:52:31.410Z,17.54
2023-05-19T18:55:01.371Z,17.54
2023-05-19T18:57:33.513Z,17.53
2023-05-19T19:00:08.164Z,17.52
2023-05-19T19:02:37.656Z,17.51
2023-05-19T19:05:09.629Z,17.49
2023-05-19T19:07:43.351Z,17.46
2023-05-19T19:10:15.342Z,17.45
2023-05-19T19:12:47.487Z,17.44
2023-05-19T19:15:16.969Z,17.40
2023-05-19T19:17:46.454Z,17.39
2023-05-19T19:20:18.797Z,17.39
2023-05-19T19:22:48.247Z,17.35
2023-05-19T19:25:17.788Z,17.29
2023-05-19T19:27:49.820Z,17.27
2023-05-19T19:30:19.321Z,17.23
2023-05-19T19:32:48.897Z,17.21
2023-05-19T19:35:18.651Z,17.14
2023-05-19T19:37:48.130Z,17.12
2023-05-19T19:40:18.232Z,17.11
2023-05-19T19:42:50.311Z,17.08
2023-05-19T19:45:20.992Z,17.03
2023-05-19T19:47:51.962Z,17.01
2023-05-19T19:50:22.081Z,16.98
2023-05-19T19:52:51.835Z,16.96
2023-05-19T19:55:21.312Z,16.96
2023-05-19T19:57:53.349Z,16.93
2023-05-19T20:00:23.289Z,16.88
2023-05-19T20:03:03.656Z,16.89
2023-05-19T20:05:34.426Z,16.85
2023-05-19T20:08:04.547Z,16.78
2023-05-19T20:10:34.304Z,16.77
2023-05-19T20:13:06.535Z,16.74
2023-05-19T20:15:36.050Z,16.69
2023-05-19T20:18:05.552Z,16.69
2023-05-19T20:20:35.404Z,16.66
2023-05-19T20:23:05.127Z,16.57
2023-05-19T20:25:34.885Z,16.53
2023-05-19T20:28:07.689Z,16.52
2023-05-19T20:30:37.300Z,16.45
2023-05-19T20:33:07.277Z,16.43
2023-05-19T20:35:36.812Z,16.41
2023-05-19T20:38:06.327Z,16.38
2023-05-19T20:40:36.088Z,16.36
2023-05-19T20:43:08.174Z,16.37
2023-05-19T20:45:37.943Z,16.34
2023-05-19T20:48:08.788Z,16.34
2023-05-19T20:50:38.403Z,16.30
2023-05-19T20:53:07.951Z,16.27
2023-05-19T20:55:38.073Z,16.22
2023-05-19T20:58:10.137Z,16.21
2023-05-19T21:00:39.685Z,16.18
2023-05-19T21:03:09.233Z,16.09
2023-05-19T21:05:38.921Z,16.14
2023-05-19T21:08:12.927Z,16.07
2023-05-19T21:10:42.516Z,16.04
2023-05-19T21:13:14.941Z,15.96
2023-05-19T21:15:44.458Z,15.97
2023-05-19T21:18:14.352Z,15.96
2023-05-19T21:20:43.890Z,16.00
2023-05-19T21:23:13.472Z,15.93
2023-05-19T21:25:45.106Z,15.93
2023-05-19T21:28:17.590Z,15.91
2023-05-19T21:30:50.354Z,15.87
2023-05-19T21:33:19.949Z,15.88
2023-05-19T21:35:49.432Z,15.79
2023-05-19T21:38:23.812Z,15.77
2023-05-19T21:40:54.042Z,15.76
2023-05-19T21:43:26.130Z,15.67
2023-05-19T21:45:55.627Z,15.68
2023-05-19T21:48:25.183Z,15.55
2023-05-19T21:50:56.279Z,15.56
2023-05-19T21:53:25.774Z,15.59
2023-05-19T21:55:55.323Z,15.57
2023-05-19T21:58:27.503Z,15.49
2023-05-19T22:00:57.252Z,15.49
2023-05-19T22:03:26.903Z,15.48
2023-05-19T22:05:57.816Z,15.43
2023-05-19T22:08:27.322Z,15.37
2023-05-19T22:10:56.834Z,15.35
2023-05-19T22:13:28.908Z,15.33
2023-05-19T22:15:58.464Z,15.28
2023-05-19T22:18:28.025Z,15.27
2023-05-19T22:20:57.513Z,15.16
2023-05-19T22:23:26.980Z,15.27
2023-05-19T22:25:56.461Z,15.26
2023-05-19T22:28:28.498Z,15.19
2023-05-19T22:30:57.984Z,15.10
2023-05-19T22:33:27.483Z,15.08
2023-05-19T22:35:57.077Z,15.15
2023-05-19T22:38:26.538Z,15.05
2023-05-19T22:40:56.131Z,15.01
2023-05-19T22:43:28.212Z,14.94
2023-05-19T22:45:57.676Z,14.85
2023-05-19T22:48:27.415Z,14.95
2023-05-19T22:50:56.949Z,14.89
2023-05-19T22:53:26.519Z,14.85
2023-05-19T22:55:55.989Z,14.86
2023-05-19T22:58:28.384Z,14.84
2023-05-19T23:00:57.877Z,14.81
2023-05-19T23:03:27.373Z,14.77
2023-05-19T23:05:56.838Z,14.72
2023-05-19T23:08:26.448Z,14.82
2023-05-19T23:10:55.902Z,14.83
2023-05-19T23:13:28.130Z,14.76
2023-05-19T23:15:57.594Z,14.76
2023-05-19T23:18:27.100Z,14.75
2023-05-19T23:20:56.615Z,14.68
2023-05-19T23:23:27.582Z,14.68
2023-05-19T23:25:57.627Z,14.68
2023-05-19T23:28:29.678Z,14.54
2023-05-19T23:30:59.429Z,14.56
2023-05-19T23:33:28.979Z,14.59
2023-05-19T23:35:58.463Z,14.50
2023-05-19T23:38:27.947Z,14.52
2023-05-19T23:40:57.457Z,14.57
2023-05-19T23:43:29.592Z,14.54
2023-05-19T23:45:59.066Z,14.50
2023-05-19T23:48:29.674Z,14.53
2023-05-19T23:50:59.820Z,14.48
2023-05-19T23:53:29.381Z,14.37
2023-05-19T23:55:58.894Z,14.43
2023-05-19T23:58:30.961Z,14.42
